CAL220 RCKH-RCSS
Flight info
| Callsign | CAL220 |
|---|---|
| Flight time | N/A |
| Altitude | 23000 |
| Route | TNN1H TNN W4 HLG HLG1E |
| Aircraft | A359/H-SDE2E3GHIJ3J4J5LM1ORWXY/LB1D1 |
Departure
| Time | 2026-04-28 13:39 |
|---|---|
| Airport | Kaohsiung International Airport (RCKH) |
Arrival
| Time | N/A |
|---|---|
| Airport | Taipei Songshan International Airport (RCSS) |
| Time | Latitude | Longitude | Altitude | Speed | Heading |
|---|---|---|---|---|---|
| 2026-04-28 13:24 | 22.57332 | 120.33849 | 45 ft | 0 kts | 91° |
| 2026-04-28 13:30 | 22.57332 | 120.33848 | 45 ft | 1 kts | 91° |
| 2026-04-28 13:31 | 22.57331 | 120.33793 | 40 ft | 3 kts | 76° |
| 2026-04-28 13:31 | 22.57326 | 120.33779 | 40 ft | 2 kts | 41° |
| 2026-04-28 13:31 | 22.57316 | 120.33773 | 39 ft | 2 kts | 12° |
| 2026-04-28 13:32 | 22.57305 | 120.33771 | 40 ft | 2 kts | 4° |
| 2026-04-28 13:32 | 22.57294 | 120.33770 | 44 ft | 2 kts | 1° |
| 2026-04-28 13:32 | 22.57290 | 120.33770 | 42 ft | 0 kts | 1° |
| 2026-04-28 13:36 | 22.57297 | 120.33770 | 43 ft | 6 kts | 1° |
| 2026-04-28 13:36 | 22.57370 | 120.33772 | 44 ft | 12 kts | 353° |
| 2026-04-28 13:37 | 22.57429 | 120.33699 | 44 ft | 15 kts | 301° |
| 2026-04-28 13:37 | 22.57512 | 120.33600 | 43 ft | 20 kts | 319° |
| 2026-04-28 13:37 | 22.57610 | 120.33512 | 44 ft | 17 kts | 333° |
| 2026-04-28 13:37 | 22.57716 | 120.33512 | 44 ft | 15 kts | 27° |
| 2026-04-28 13:38 | 22.57750 | 120.33619 | 44 ft | 18 kts | 91° |
| 2026-04-28 13:38 | 22.57741 | 120.33926 | 45 ft | 76 kts | 92° |
| 2026-04-28 13:38 | 22.57715 | 120.34767 | 46 ft | 145 kts | 91° |
| 2026-04-28 13:38 | 22.57689 | 120.35991 | 490 ft | 166 kts | 91° |
| 2026-04-28 13:39 | 22.57859 | 120.37194 | 1329 ft | 162 kts | 65° |
| 2026-04-28 13:39 | 22.58135 | 120.38439 | 1725 ft | 182 kts | 96° |
| 2026-04-28 13:39 | 22.57495 | 120.39669 | 1928 ft | 202 kts | 142° |
| 2026-04-28 13:39 | 22.56130 | 120.40087 | 2324 ft | 213 kts | 187° |
| 2026-04-28 13:40 | 22.54829 | 120.39373 | 2944 ft | 215 kts | 228° |
| 2026-04-28 13:40 | 22.53970 | 120.38054 | 3637 ft | 216 kts | 236° |
| 2026-04-28 13:40 | 22.52992 | 120.36805 | 4295 ft | 219 kts | 222° |
| 2026-04-28 13:40 | 22.51755 | 120.35829 | 4955 ft | 222 kts | 210° |
| 2026-04-28 13:41 | 22.50365 | 120.35082 | 5642 ft | 224 kts | 203° |
| 2026-04-28 13:41 | 22.48899 | 120.34478 | 6295 ft | 227 kts | 199° |
| 2026-04-28 13:41 | 22.47389 | 120.33956 | 6945 ft | 229 kts | 197° |
| 2026-04-28 13:41 | 22.45964 | 120.33228 | 7501 ft | 233 kts | 221° |
| 2026-04-28 13:42 | 22.45133 | 120.31746 | 8045 ft | 240 kts | 257° |
| 2026-04-28 13:42 | 22.45259 | 120.29900 | 8291 ft | 261 kts | 291° |
| 2026-04-28 13:42 | 22.46219 | 120.28169 | 8628 ft | 276 kts | 304° |
| 2026-04-28 13:42 | 22.47304 | 120.26418 | 9187 ft | 282 kts | 302° |
| 2026-04-28 13:43 | 22.48319 | 120.24583 | 9828 ft | 286 kts | 299° |
| 2026-04-28 13:43 | 22.49293 | 120.22675 | 10343 ft | 295 kts | 297° |
| 2026-04-28 13:43 | 22.50285 | 120.20665 | 10610 ft | 311 kts | 298° |
| 2026-04-28 13:43 | 22.51573 | 120.18703 | 10838 ft | 328 kts | 313° |
| 2026-04-28 13:44 | 22.53421 | 120.17167 | 11084 ft | 343 kts | 332° |
| 2026-04-28 13:44 | 22.55715 | 120.16358 | 11502 ft | 351 kts | 351° |
| 2026-04-28 13:44 | 22.58168 | 120.16310 | 12020 ft | 355 kts | 3° |
| 2026-04-28 13:44 | 22.60640 | 120.16515 | 12541 ft | 358 kts | 4° |
| 2026-04-28 13:45 | 22.63103 | 120.16732 | 13033 ft | 361 kts | 4° |
| 2026-04-28 13:45 | 22.65618 | 120.16942 | 13544 ft | 364 kts | 4° |
| 2026-04-28 13:45 | 22.68150 | 120.17145 | 14041 ft | 367 kts | 4° |
| 2026-04-28 13:45 | 22.70705 | 120.17345 | 14531 ft | 369 kts | 4° |
| 2026-04-28 13:46 | 22.73289 | 120.17545 | 15020 ft | 372 kts | 4° |
| 2026-04-28 13:46 | 22.75879 | 120.17744 | 15505 ft | 375 kts | 4° |
| 2026-04-28 13:46 | 22.78492 | 120.17943 | 15983 ft | 377 kts | 4° |
| 2026-04-28 13:46 | 22.81119 | 120.18144 | 16443 ft | 380 kts | 4° |
| 2026-04-28 13:47 | 22.83765 | 120.18346 | 16905 ft | 383 kts | 4° |
| 2026-04-28 13:47 | 22.86428 | 120.18549 | 17357 ft | 385 kts | 4° |
| 2026-04-28 13:47 | 22.89110 | 120.18753 | 17800 ft | 388 kts | 4° |
| 2026-04-28 13:47 | 22.91813 | 120.18959 | 18238 ft | 390 kts | 4° |
| 2026-04-28 13:48 | 22.94534 | 120.19167 | 18664 ft | 393 kts | 4° |
| 2026-04-28 13:48 | 22.97240 | 120.19374 | 19071 ft | 395 kts | 4° |
| 2026-04-28 13:48 | 23.00025 | 120.19586 | 19495 ft | 398 kts | 4° |
| 2026-04-28 13:48 | 23.02763 | 120.19795 | 19895 ft | 400 kts | 4° |
| 2026-04-28 13:49 | 23.05551 | 120.20009 | 20282 ft | 403 kts | 4° |
| 2026-04-28 13:49 | 23.08351 | 120.20223 | 20670 ft | 405 kts | 4° |
| 2026-04-28 13:49 | 23.11171 | 120.20439 | 21043 ft | 407 kts | 4° |
| 2026-04-28 13:49 | 23.13993 | 120.20846 | 21402 ft | 410 kts | 12° |
| 2026-04-28 13:50 | 23.16766 | 120.21622 | 21766 ft | 412 kts | 16° |
| 2026-04-28 13:50 | 23.19503 | 120.22568 | 22112 ft | 414 kts | 18° |
| 2026-04-28 13:50 | 23.22241 | 120.23600 | 22461 ft | 417 kts | 19° |
| 2026-04-28 13:50 | 23.24983 | 120.24656 | 22801 ft | 419 kts | 19° |
| 2026-04-28 13:51 | 23.27738 | 120.25710 | 22981 ft | 417 kts | 19° |
| 2026-04-28 13:51 | 23.30463 | 120.26736 | 23004 ft | 412 kts | 19° |
| 2026-04-28 13:51 | 23.33139 | 120.27726 | 23003 ft | 411 kts | 18° |
| 2026-04-28 13:51 | 23.35858 | 120.28721 | 23001 ft | 411 kts | 18° |
| 2026-04-28 13:52 | 23.38572 | 120.29708 | 23001 ft | 411 kts | 18° |
| 2026-04-28 13:52 | 23.41288 | 120.30693 | 23000 ft | 411 kts | 18° |
| 2026-04-28 13:52 | 23.44004 | 120.31678 | 23000 ft | 411 kts | 18° |
| 2026-04-28 13:52 | 23.46721 | 120.32665 | 23000 ft | 411 kts | 18° |
| 2026-04-28 13:53 | 23.49434 | 120.33651 | 23000 ft | 411 kts | 18° |
| 2026-04-28 13:53 | 23.52148 | 120.34639 | 23000 ft | 411 kts | 18° |
| 2026-04-28 13:53 | 23.54828 | 120.35616 | 23000 ft | 411 kts | 18° |
| 2026-04-28 13:53 | 23.57541 | 120.36605 | 23000 ft | 411 kts | 18° |
| 2026-04-28 13:54 | 23.60256 | 120.37596 | 23000 ft | 411 kts | 18° |
| 2026-04-28 13:54 | 23.62966 | 120.38590 | 23000 ft | 411 kts | 18° |
| 2026-04-28 13:54 | 23.65681 | 120.39578 | 23000 ft | 411 kts | 18° |
| 2026-04-28 13:54 | 23.68393 | 120.40561 | 23000 ft | 411 kts | 18° |
| 2026-04-28 13:55 | 23.71105 | 120.41544 | 23000 ft | 411 kts | 18° |
| 2026-04-28 13:55 | 23.73824 | 120.42531 | 23000 ft | 411 kts | 18° |
| 2026-04-28 13:55 | 23.76541 | 120.43519 | 23000 ft | 411 kts | 18° |
| 2026-04-28 13:55 | 23.79253 | 120.44506 | 23000 ft | 411 kts | 18° |
| 2026-04-28 13:56 | 23.81934 | 120.45483 | 23000 ft | 411 kts | 18° |
| 2026-04-28 13:56 | 23.84681 | 120.46485 | 23000 ft | 411 kts | 18° |
| 2026-04-28 13:56 | 23.87361 | 120.47463 | 23000 ft | 411 kts | 18° |
| 2026-04-28 13:56 | 23.90103 | 120.48464 | 23000 ft | 411 kts | 18° |
| 2026-04-28 13:57 | 23.92778 | 120.49448 | 23000 ft | 411 kts | 18° |
| 2026-04-28 13:57 | 23.95489 | 120.50447 | 23000 ft | 411 kts | 18° |
| 2026-04-28 13:57 | 23.98200 | 120.51444 | 23000 ft | 411 kts | 18° |
| 2026-04-28 13:57 | 24.00910 | 120.52439 | 23000 ft | 411 kts | 18° |
| 2026-04-28 13:58 | 24.03623 | 120.53436 | 23000 ft | 411 kts | 18° |
| 2026-04-28 13:58 | 24.06333 | 120.54434 | 23000 ft | 411 kts | 18° |
| 2026-04-28 13:58 | 24.09049 | 120.55423 | 23000 ft | 411 kts | 18° |
| 2026-04-28 13:58 | 24.11773 | 120.56416 | 23000 ft | 411 kts | 18° |
| 2026-04-28 13:59 | 24.14488 | 120.57411 | 23000 ft | 411 kts | 18° |
| 2026-04-28 13:59 | 24.17196 | 120.58409 | 23000 ft | 411 kts | 18° |
| 2026-04-28 13:59 | 24.19904 | 120.59409 | 23000 ft | 411 kts | 18° |
| 2026-04-28 13:59 | 24.22580 | 120.60392 | 23000 ft | 411 kts | 18° |
| 2026-04-28 14:00 | 24.25281 | 120.61385 | 22860 ft | 406 kts | 18° |
| 2026-04-28 14:00 | 24.27962 | 120.62371 | 22093 ft | 410 kts | 18° |
| 2026-04-28 14:00 | 24.30706 | 120.63381 | 21110 ft | 419 kts | 18° |
| 2026-04-28 14:00 | 24.33449 | 120.64391 | 20111 ft | 426 kts | 18° |
| 2026-04-28 14:01 | 24.35367 | 120.65098 | 19490 ft | 430 kts | 18° |
| 2026-04-28 14:01 | 24.38212 | 120.66147 | 18647 ft | 432 kts | 18° |
| 2026-04-28 14:01 | 24.41055 | 120.67196 | 17872 ft | 431 kts | 18° |
| 2026-04-28 14:01 | 24.43896 | 120.68245 | 17122 ft | 429 kts | 18° |
| 2026-04-28 14:02 | 24.47631 | 120.69625 | 16178 ft | 424 kts | 18° |
| 2026-04-28 14:02 | 24.49522 | 120.70324 | 15718 ft | 421 kts | 18° |
| 2026-04-28 14:02 | 24.52252 | 120.71333 | 15083 ft | 416 kts | 18° |
| 2026-04-28 14:02 | 24.54946 | 120.72443 | 14402 ft | 412 kts | 25° |
| 2026-04-28 14:03 | 24.57292 | 120.74231 | 13666 ft | 409 kts | 44° |
| 2026-04-28 14:03 | 24.59238 | 120.76486 | 12997 ft | 405 kts | 48° |
| 2026-04-28 14:03 | 24.61102 | 120.78781 | 12378 ft | 399 kts | 48° |
| 2026-04-28 14:03 | 24.62939 | 120.81034 | 11787 ft | 392 kts | 48° |
| 2026-04-28 14:04 | 24.64761 | 120.83254 | 11220 ft | 386 kts | 48° |
| 2026-04-28 14:04 | 24.66504 | 120.85368 | 11073 ft | 369 kts | 48° |
| 2026-04-28 14:04 | 24.68188 | 120.87407 | 10959 ft | 352 kts | 47° |
| 2026-04-28 14:04 | 24.69796 | 120.89353 | 10857 ft | 337 kts | 47° |
| 2026-04-28 14:05 | 24.71343 | 120.91224 | 10716 ft | 323 kts | 47° |
| 2026-04-28 14:05 | 24.72824 | 120.93015 | 10570 ft | 311 kts | 47° |
| 2026-04-28 14:05 | 24.74263 | 120.94755 | 10354 ft | 303 kts | 47° |
| 2026-04-28 14:05 | 24.75675 | 120.96464 | 10030 ft | 300 kts | 47° |
| 2026-04-28 14:06 | 24.77077 | 120.98159 | 9598 ft | 299 kts | 47° |
| 2026-04-28 14:06 | 24.78474 | 120.99849 | 9226 ft | 297 kts | 47° |
| 2026-04-28 14:06 | 24.79838 | 121.01501 | 8905 ft | 293 kts | 47° |
| 2026-04-28 14:06 | 24.81200 | 121.03150 | 8560 ft | 289 kts | 47° |
| 2026-04-28 14:07 | 24.82548 | 121.04782 | 8259 ft | 287 kts | 47° |
| 2026-04-28 14:07 | 24.83892 | 121.06412 | 7938 ft | 286 kts | 47° |
| 2026-04-28 14:07 | 24.85232 | 121.08036 | 7615 ft | 285 kts | 47° |
| 2026-04-28 14:07 | 24.86562 | 121.09648 | 7301 ft | 284 kts | 47° |
| 2026-04-28 14:08 | 24.87884 | 121.11253 | 6975 ft | 282 kts | 47° |
| 2026-04-28 14:08 | 24.89200 | 121.12848 | 6666 ft | 281 kts | 48° |
| 2026-04-28 14:08 | 24.90511 | 121.14440 | 6346 ft | 280 kts | 48° |
| 2026-04-28 14:08 | 24.91821 | 121.16031 | 6029 ft | 278 kts | 48° |
| 2026-04-28 14:09 | 24.93116 | 121.17603 | 5712 ft | 277 kts | 48° |
| 2026-04-28 14:09 | 24.94394 | 121.19157 | 5398 ft | 276 kts | 48° |
| 2026-04-28 14:09 | 24.95682 | 121.20723 | 5092 ft | 275 kts | 48° |
| 2026-04-28 14:09 | 24.96988 | 121.22265 | 4781 ft | 273 kts | 46° |
| 2026-04-28 14:10 | 24.98299 | 121.23778 | 4467 ft | 272 kts | 46° |
| 2026-04-28 14:10 | 24.99608 | 121.25293 | 4159 ft | 271 kts | 46° |
| 2026-04-28 14:10 | 25.00899 | 121.26793 | 3846 ft | 270 kts | 46° |
| 2026-04-28 14:10 | 25.02192 | 121.28298 | 3543 ft | 269 kts | 46° |
| 2026-04-28 14:11 | 25.03441 | 121.29754 | 3402 ft | 259 kts | 46° |
| 2026-04-28 14:11 | 25.04649 | 121.31164 | 3305 ft | 248 kts | 46° |
| 2026-04-28 14:11 | 25.05808 | 121.32518 | 3243 ft | 236 kts | 46° |
| 2026-04-28 14:11 | 25.06897 | 121.33817 | 3234 ft | 222 kts | 50° |
| 2026-04-28 14:12 | 25.07579 | 121.35263 | 3214 ft | 207 kts | 79° |
| 2026-04-28 14:12 | 25.07661 | 121.36821 | 3083 ft | 201 kts | 93° |
| 2026-04-28 14:12 | 25.07582 | 121.38346 | 3012 ft | 198 kts | 95° |
| 2026-04-28 14:12 | 25.07501 | 121.39866 | 2974 ft | 200 kts | 92° |
| 2026-04-28 14:13 | 25.07461 | 121.41414 | 2580 ft | 206 kts | 92° |
| 2026-04-28 14:13 | 25.07410 | 121.43018 | 1994 ft | 214 kts | 93° |
| 2026-04-28 14:13 | 25.07348 | 121.44641 | 1390 ft | 208 kts | 94° |
| 2026-04-28 14:13 | 25.07286 | 121.46172 | 1102 ft | 186 kts | 93° |
| 2026-04-28 14:14 | 25.07234 | 121.47491 | 1046 ft | 158 kts | 93° |
| 2026-04-28 14:14 | 25.07193 | 121.48627 | 1027 ft | 137 kts | 94° |
| 2026-04-28 14:14 | 25.07156 | 121.49660 | 884 ft | 136 kts | 93° |
| 2026-04-28 14:14 | 25.07125 | 121.50685 | 693 ft | 132 kts | 92° |
| 2026-04-28 14:15 | 25.07088 | 121.51685 | 423 ft | 130 kts | 93° |
| 2026-04-28 14:15 | 25.07043 | 121.52682 | 265 ft | 130 kts | 91° |
| 2026-04-28 14:15 | 25.07021 | 121.53693 | 105 ft | 132 kts | 92° |
| 2026-04-28 14:15 | 25.06984 | 121.54689 | 34 ft | 123 kts | 92° |
| 2026-04-28 14:16 | 25.06955 | 121.55415 | 34 ft | 54 kts | 93° |